Time;durP1;ratioP1;P1;durP2;ratioP2;P2;SDS_P1;SDS_P2;PMS_P1;PMS_P2;Temp;Humidity;BMP_temperature;BMP_pressure;BME280_temperature;BME280_humidity;BME280_pressure;Samples;Min_cycle;Max_cycle;Signal;HPM_P1;HPM_P2
2023/12/08 00:00:07;;;;;;;1.27;1.27;;;3.30;99.90;;;;;;5025243;28;20504;-91
2023/12/08 00:02:35;;;;;;;1.17;0.97;;;3.30;99.90;;;;;;5019275;28;20690;-89
2023/12/08 00:05:04;;;;;;;1.87;1.17;;;3.20;99.90;;;;;;5018884;28;20218;-89
2023/12/08 00:07:30;;;;;;;0.60;0.60;;;3.30;99.90;;;;;;5018091;28;20269;-89
2023/12/08 00:10:07;;;;;;;1.37;1.37;;;3.30;99.90;;;;;;5018619;28;20222;-92
2023/12/08 00:12:34;;;;;;;1.43;1.33;;;3.30;99.90;;;;;;5019165;28;20237;-89
2023/12/08 00:15:02;;;;;;;1.67;1.57;;;3.40;99.90;;;;;;5034700;28;20183;-89
2023/12/08 00:17:31;;;;;;;2.20;1.90;;;3.30;99.90;;;;;;5019496;28;20174;-89
2023/12/08 00:20:05;;;;;;;1.47;0.93;;;3.30;99.90;;;;;;5035279;28;20229;-92
2023/12/08 00:22:36;;;;;;;0.57;0.57;;;3.40;99.90;;;;;;4993278;28;20308;-89
2023/12/08 00:25:12;;;;;;;0.60;0.60;;;3.40;99.90;;;;;;5026576;28;20584;-89
2023/12/08 00:27:53;;;;;;;0.93;0.93;;;3.40;99.90;;;;;;5018775;28;20215;-90
2023/12/08 00:30:24;;;;;;;0.43;0.43;;;3.30;99.90;;;;;;5018215;28;20214;-92
2023/12/08 00:32:50;;;;;;;1.53;1.50;;;3.30;99.90;;;;;;5034471;28;20210;-92
2023/12/08 00:35:18;;;;;;;5.70;2.80;;;3.30;99.90;;;;;;5017723;28;20699;-91
2023/12/08 00:37:52;;;;;;;0.30;0.30;;;3.30;99.90;;;;;;5009908;28;20242;-90
2023/12/08 00:40:17;;;;;;;2.30;2.17;;;3.20;99.90;;;;;;5017177;28;20225;-90
2023/12/08 00:42:47;;;;;;;2.10;2.00;;;3.30;99.90;;;;;;5008986;28;20698;-89
2023/12/08 00:45:14;;;;;;;0.87;0.87;;;3.20;99.90;;;;;;5017497;28;20595;-89
2023/12/08 00:47:43;;;;;;;3.93;3.50;;;3.20;99.90;;;;;;5035766;28;20187;-89
2023/12/08 00:50:12;;;;;;;1.27;1.27;;;3.20;99.90;;;;;;5034064;28;20276;-89
2023/12/08 00:52:40;;;;;;;6.23;2.20;;;3.20;99.90;;;;;;5017534;28;20330;-90
2023/12/08 00:55:14;;;;;;;0.73;0.73;;;3.20;99.90;;;;;;5008642;28;20230;-88
2023/12/08 00:57:44;;;;;;;0.97;0.97;;;3.20;99.90;;;;;;5016110;28;20590;-92
2023/12/08 01:00:11;;;;;;;0.63;0.63;;;3.10;99.90;;;;;;5017174;28;20194;-89
2023/12/08 01:02:37;;;;;;;1.40;1.30;;;3.20;99.90;;;;;;5017597;28;20212;-89
2023/12/08 01:05:03;;;;;;;1.40;1.30;;;3.20;99.90;;;;;;5007053;28;20253;-90
2023/12/08 01:07:29;;;;;;;1.43;0.47;;;3.20;99.90;;;;;;5020051;28;20322;-89
2023/12/08 01:09:55;;;;;;;1.13;1.13;;;3.20;99.90;;;;;;5036634;28;20241;-89
2023/12/08 01:12:23;;;;;;;1.30;1.23;;;3.20;99.90;;;;;;5028366;28;20218;-89
2023/12/08 01:14:52;;;;;;;3.43;1.33;;;3.20;99.90;;;;;;5036362;28;20193;-89
2023/12/08 01:17:17;;;;;;;0.77;0.77;;;3.20;99.90;;;;;;5026806;28;20634;-90
2023/12/08 01:19:43;;;;;;;5.10;3.93;;;3.20;99.90;;;;;;5054634;28;20218;-88
2023/12/08 01:22:27;;;;;;;3.27;1.83;;;3.10;99.90;;;;;;5037958;28;20692;-92
2023/12/08 01:24:54;;;;;;;1.33;1.23;;;3.20;99.90;;;;;;5036274;28;20316;-92
2023/12/08 01:27:21;;;;;;;1.20;1.20;;;3.20;99.90;;;;;;5054212;28;20209;-90
2023/12/08 01:29:50;;;;;;;2.63;1.37;;;3.20;99.90;;;;;;5037109;28;20231;-89
2023/12/08 01:32:17;;;;;;;2.63;2.53;;;3.20;99.90;;;;;;5036204;28;20222;-90
2023/12/08 01:34:45;;;;;;;2.23;2.13;;;3.10;99.90;;;;;;5036636;28;20210;-91
2023/12/08 01:37:11;;;;;;;4.10;3.80;;;3.20;99.90;;;;;;5054005;28;20585;-91
2023/12/08 01:39:44;;;;;;;1.57;1.47;;;3.20;99.90;;;;;;5036559;28;20217;-92
2023/12/08 01:42:14;;;;;;;0.60;0.60;;;3.20;99.90;;;;;;5036688;28;20621;-91
2023/12/08 01:44:48;;;;;;;0.43;0.43;;;3.20;99.90;;;;;;5054775;28;20174;-92
2023/12/08 01:47:14;;;;;;;1.33;0.87;;;3.20;99.90;;;;;;5036193;28;20213;-90
2023/12/08 01:49:40;;;;;;;1.00;1.00;;;3.20;99.90;;;;;;5036157;28;20232;-91
2023/12/08 01:52:14;;;;;;;1.43;1.40;;;3.20;99.90;;;;;;5036078;28;20214;-91
2023/12/08 01:54:43;;;;;;;1.60;1.50;;;3.10;99.90;;;;;;5028529;28;20221;-91
2023/12/08 01:57:09;;;;;;;3.00;1.03;;;3.10;99.90;;;;;;5026226;28;20186;-89
2023/12/08 01:59:40;;;;;;;1.07;0.93;;;3.10;99.90;;;;;;5054586;28;20174;-91
2023/12/08 02:02:08;;;;;;;1.43;0.30;;;3.10;99.90;;;;;;5025871;28;20670;-91
2023/12/08 02:04:39;;;;;;;1.00;1.00;;;3.10;99.90;;;;;;5020356;28;20214;-89
2023/12/08 02:07:10;;;;;;;1.17;1.17;;;3.10;99.90;;;;;;5035612;28;20575;-91
2023/12/08 02:09:39;;;;;;;1.07;1.07;;;3.10;99.90;;;;;;5006155;28;20276;-92
2023/12/08 02:12:05;;;;;;;2.10;2.00;;;3.10;99.90;;;;;;5006520;28;20627;-90
2023/12/08 02:14:41;;;;;;;2.13;2.00;;;3.10;99.90;;;;;;5016745;28;20201;-91
2023/12/08 02:17:30;;;;;;;0.60;0.60;;;3.10;99.90;;;;;;5017361;28;20257;-91
2023/12/08 02:19:56;;;;;;;1.03;0.97;;;3.00;99.90;;;;;;5015878;28;20233;-92
2023/12/08 02:22:25;;;;;;;1.50;1.50;;;3.10;99.90;;;;;;5022041;28;20238;-91
2023/12/08 02:24:58;;;;;;;0.70;0.70;;;3.10;99.90;;;;;;5015732;28;20210;-88
2023/12/08 02:27:30;;;;;;;1.43;1.37;;;3.10;99.90;;;;;;5015529;28;20246;-90
2023/12/08 02:29:56;;;;;;;0.77;0.77;;;3.10;99.90;;;;;;5016021;28;20178;-91
2023/12/08 02:32:34;;;;;;;0.83;0.83;;;3.10;99.90;;;;;;5016534;28;20277;-89
2023/12/08 02:35:09;;;;;;;0.87;0.87;;;3.00;99.90;;;;;;5015584;28;20210;-92
2023/12/08 02:37:46;;;;;;;0.60;0.60;;;3.00;99.90;;;;;;5008031;28;20242;-90
2023/12/08 02:40:12;;;;;;;4.10;3.90;;;3.10;99.90;;;;;;5015620;28;20243;-90
2023/12/08 02:42:41;;;;;;;3.03;2.93;;;3.20;99.90;;;;;;5015478;28;20573;-90
2023/12/08 02:45:10;;;;;;;0.40;0.40;;;3.10;99.90;;;;;;5016650;28;20167;-89
2023/12/08 02:47:43;;;;;;;0.90;0.90;;;3.10;99.90;;;;;;5016332;28;20179;-90
2023/12/08 02:50:14;;;;;;;2.53;1.00;;;3.10;99.90;;;;;;5015725;28;20222;-90
2023/12/08 02:52:45;;;;;;;1.07;0.97;;;3.10;99.90;;;;;;4990329;28;20298;-89
2023/12/08 02:55:14;;;;;;;1.03;1.03;;;3.00;99.90;;;;;;4999095;28;20222;-89
2023/12/08 02:57:47;;;;;;;0.37;0.37;;;3.10;99.90;;;;;;5016206;28;20274;-89
2023/12/08 03:00:21;;;;;;;0.97;0.97;;;3.00;99.90;;;;;;5032414;28;20181;-89
2023/12/08 03:02:55;;;;;;;1.67;1.57;;;3.10;99.90;;;;;;5016202;28;20638;-89
2023/12/08 03:05:24;;;;;;;1.53;1.43;;;3.00;99.90;;;;;;5016902;28;20182;-89
2023/12/08 03:07:52;;;;;;;1.90;1.33;;;3.00;99.90;;;;;;5021316;28;20631;-89
2023/12/08 03:10:21;;;;;;;0.87;0.87;;;3.00;99.90;;;;;;5019231;28;20213;-91
2023/12/08 03:12:51;;;;;;;1.67;1.63;;;3.00;99.90;;;;;;5035556;28;20312;-90
2023/12/08 03:15:23;;;;;;;3.33;1.40;;;3.00;99.90;;;;;;5020154;28;20210;-90
2023/12/08 03:17:56;;;;;;;0.67;0.67;;;3.00;99.90;;;;;;5022002;28;20257;-90
2023/12/08 03:20:27;;;;;;;0.70;0.70;;;3.00;99.90;;;;;;5036591;28;20326;-88
2023/12/08 03:22:59;;;;;;;2.27;2.13;;;3.10;99.90;;;;;;5038191;28;20317;-89
2023/12/08 03:25:28;;;;;;;1.63;1.63;;;3.00;99.90;;;;;;5023762;28;20214;-90
2023/12/08 03:28:01;;;;;;;0.43;0.43;;;3.10;99.90;;;;;;5022631;28;20548;-90
2023/12/08 03:30:31;;;;;;;1.37;1.37;;;3.10;99.90;;;;;;5028472;28;20220;-90
2023/12/08 03:33:05;;;;;;;1.60;1.50;;;3.00;99.90;;;;;;5056263;28;20560;-90
2023/12/08 03:35:33;;;;;;;2.20;2.10;;;3.00;99.90;;;;;;5057370;28;20158;-89
2023/12/08 03:38:04;;;;;;;1.37;1.33;;;3.00;99.90;;;;;;5039000;28;20214;-90
2023/12/08 03:40:33;;;;;;;0.43;0.43;;;3.00;99.90;;;;;;5030382;28;20252;-90
2023/12/08 03:43:01;;;;;;;5.63;5.13;;;3.00;99.90;;;;;;5047223;28;20262;-90
2023/12/08 03:45:34;;;;;;;2.93;1.40;;;3.00;99.90;;;;;;5039105;28;20217;-89
2023/12/08 03:48:05;;;;;;;2.53;1.40;;;2.90;99.90;;;;;;5028188;28;20174;-90
2023/12/08 03:50:33;;;;;;;0.67;0.67;;;3.00;99.90;;;;;;5040440;28;20265;-91
2023/12/08 03:53:22;;;;;;;1.30;0.93;;;2.90;99.90;;;;;;4999338;28;20260;-89
2023/12/08 03:55:48;;;;;;;0.60;0.60;;;3.00;99.90;;;;;;5010088;28;20241;-90
2023/12/08 03:58:17;;;;;;;1.10;1.10;;;2.90;99.90;;;;;;5016920;28;20219;-90
2023/12/08 04:00:54;;;;;;;1.03;0.93;;;2.90;99.90;;;;;;5035566;28;20215;-91
2023/12/08 04:03:39;;;;;;;1.80;1.60;;;2.90;99.90;;;;;;5034911;28;20241;-89
2023/12/08 04:06:13;;;;;;;1.80;1.70;;;2.90;99.90;;;;;;5027126;28;20178;-91
2023/12/08 04:08:49;;;;;;;2.33;1.97;;;2.90;99.90;;;;;;5035468;28;20226;-90
2023/12/08 04:11:27;;;;;;;0.67;0.67;;;2.90;99.90;;;;;;5034654;28;20240;-92
2023/12/08 04:14:10;;;;;;;3.90;3.73;;;2.80;99.90;;;;;;5026513;28;20318;-90
2023/12/08 04:16:49;;;;;;;1.50;1.13;;;2.80;99.90;;;;;;5038935;28;20253;-90
2023/12/08 04:19:21;;;;;;;1.20;1.20;;;2.80;99.90;;;;;;5028073;28;20222;-89
2023/12/08 04:21:54;;;;;;;1.47;1.37;;;2.80;99.90;;;;;;5037789;28;20210;-90
2023/12/08 04:24:23;;;;;;;0.50;0.50;;;2.70;99.90;;;;;;5038161;28;20746;-90
2023/12/08 04:27:18;;;;;;;0.73;0.73;;;2.70;99.90;;;;;;5018657;28;20182;-91
2023/12/08 04:29:44;;;;;;;0.83;0.83;;;2.70;99.90;;;;;;5039265;28;20185;-91
2023/12/08 04:32:34;;;;;;;2.63;2.10;;;2.70;99.90;;;;;;5039473;28;20576;-90
2023/12/08 04:35:07;;;;;;;2.63;2.23;;;2.70;99.90;;;;;;5026887;28;20224;-90
2023/12/08 04:37:38;;;;;;;0.80;0.80;;;2.60;99.90;;;;;;5038475;28;20226;-92
2023/12/08 04:40:22;;;;;;;1.57;1.47;;;2.50;99.90;;;;;;5038726;28;20217;-88
2023/12/08 04:42:52;;;;;;;2.30;2.20;;;2.60;99.90;;;;;;5037716;28;20230;-92
2023/12/08 04:45:23;;;;;;;2.60;2.40;;;2.60;99.90;;;;;;5027271;28;20225;-90
2023/12/08 04:47:59;;;;;;;1.53;1.53;;;2.60;99.90;;;;;;5038029;28;20249;-91
2023/12/08 04:50:26;;;;;;;2.40;2.30;;;2.50;99.90;;;;;;5038357;28;20201;-91
2023/12/08 04:52:52;;;;;;;0.67;0.67;;;2.50;99.90;;;;;;5027583;28;20325;-90
2023/12/08 04:55:20;;;;;;;0.80;0.70;;;2.70;99.90;;;;;;5037377;28;20226;-89
2023/12/08 04:57:48;;;;;;;2.07;1.97;;;2.60;99.90;;;;;;5037396;28;20225;-89
2023/12/08 05:00:17;;;;;;;1.40;1.40;;;2.60;99.90;;;;;;5055466;28;20221;-89
2023/12/08 05:02:45;;;;;;;1.90;1.80;;;2.60;99.90;;;;;;5037301;28;20217;-89
2023/12/08 05:05:11;;;;;;;3.60;1.57;;;2.50;99.90;;;;;;5036627;28;20229;-90
2023/12/08 05:07:45;;;;;;;4.23;1.43;;;2.50;99.90;;;;;;5036894;28;20613;-89
2023/12/08 05:10:11;;;;;;;0.87;0.87;;;2.50;99.90;;;;;;5037466;28;20222;-89
2023/12/08 05:12:37;;;;;;;2.07;1.97;;;2.60;99.90;;;;;;5037388;28;20222;-91
2023/12/08 05:15:05;;;;;;;2.10;2.00;;;2.50;99.90;;;;;;5020566;28;20178;-91
2023/12/08 05:17:45;;;;;;;2.23;1.30;;;2.40;99.90;;;;;;5055279;28;20166;-89
2023/12/08 05:20:15;;;;;;;1.50;1.50;;;2.50;99.90;;;;;;5037164;28;20233;-89
2023/12/08 05:22:44;;;;;;;1.87;1.77;;;2.40;99.90;;;;;;5054565;28;20287;-89
2023/12/08 05:25:17;;;;;;;1.20;1.20;;;2.50;99.90;;;;;;5036542;28;20229;-91
2023/12/08 05:27:47;;;;;;;1.73;1.60;;;2.50;99.90;;;;;;5036699;28;20225;-89
2023/12/08 05:30:13;;;;;;;2.10;2.00;;;2.40;99.90;;;;;;5019654;28;20209;-90
2023/12/08 05:32:42;;;;;;;0.30;0.30;;;2.40;99.90;;;;;;5038050;28;20178;-90
2023/12/08 05:35:10;;;;;;;2.50;2.40;;;2.40;99.90;;;;;;5020605;28;20214;-91
2023/12/08 05:37:46;;;;;;;1.77;1.77;;;2.30;99.90;;;;;;5054008;28;20221;-90
2023/12/08 05:40:12;;;;;;;0.53;0.53;;;2.30;99.90;;;;;;5025261;28;20260;-91
2023/12/08 05:42:43;;;;;;;1.07;0.87;;;2.30;99.90;;;;;;5036511;28;20237;-91
2023/12/08 05:45:14;;;;;;;2.13;1.93;;;2.20;99.90;;;;;;5037018;28;20194;-91
2023/12/08 05:47:43;;;;;;;7.93;1.40;;;2.30;99.90;;;;;;5022386;28;20579;-92
2023/12/08 05:50:16;;;;;;;1.63;1.43;;;2.20;99.90;;;;;;5053094;28;20276;-91
2023/12/08 05:52:50;;;;;;;1.17;1.17;;;2.20;99.90;;;;;;5054354;28;20217;-91
2023/12/08 05:55:15;;;;;;;0.33;0.33;;;2.30;99.90;;;;;;5019310;28;20240;-90
2023/12/08 05:57:48;;;;;;;3.03;2.83;;;2.10;99.90;;;;;;5036575;28;20222;-90
2023/12/08 06:00:18;;;;;;;0.83;0.83;;;2.20;99.90;;;;;;5026154;28;20236;-90
2023/12/08 06:02:47;;;;;;;0.77;0.77;;;2.10;99.90;;;;;;5038098;28;20217;-90
2023/12/08 06:05:15;;;;;;;1.30;0.80;;;2.20;99.90;;;;;;5026461;28;20678;-91
2023/12/08 06:07:43;;;;;;;2.87;2.63;;;2.00;99.90;;;;;;5042205;28;20234;-91
2023/12/08 06:10:14;;;;;;;2.10;0.93;;;2.10;99.90;;;;;;5036657;28;20264;-91
2023/12/08 06:12:43;;;;;;;2.20;2.10;;;2.10;99.90;;;;;;5019547;28;20280;-90
2023/12/08 06:15:12;;;;;;;1.40;1.30;;;2.20;99.90;;;;;;5036061;28;20170;-91
2023/12/08 06:17:44;;;;;;;2.53;2.43;;;2.10;99.90;;;;;;5037659;28;20170;-91
2023/12/08 06:20:11;;;;;;;1.07;1.07;;;2.20;99.90;;;;;;5019876;28;20218;-90
2023/12/08 06:22:43;;;;;;;0.53;0.53;;;2.10;99.90;;;;;;5036358;28;20236;-90
2023/12/08 06:25:20;;;;;;;2.70;1.23;;;2.10;99.90;;;;;;5036235;28;20217;-91
2023/12/08 06:27:46;;;;;;;0.70;0.70;;;2.20;99.90;;;;;;5024054;28;20228;-92
2023/12/08 06:30:13;;;;;;;0.63;0.63;;;2.10;99.90;;;;;;5025653;28;20181;-91
2023/12/08 06:32:44;;;;;;;1.13;1.13;;;2.10;99.90;;;;;;5020755;28;20197;-90
2023/12/08 06:35:10;;;;;;;0.57;0.57;;;2.20;99.90;;;;;;5035411;28;20218;-92
2023/12/08 06:37:36;;;;;;;3.23;1.87;;;2.10;99.90;;;;;;5035574;28;20221;-91
2023/12/08 06:40:03;;;;;;;1.50;1.40;;;2.20;99.90;;;;;;5035032;28;20359;-92
2023/12/08 06:42:32;;;;;;;1.33;1.20;;;2.10;99.90;;;;;;5010720;28;20711;-90
2023/12/08 06:45:02;;;;;;;0.50;0.50;;;2.20;99.90;;;;;;5036352;28;20201;-91
2023/12/08 06:47:28;;;;;;;0.67;0.67;;;2.20;99.90;;;;;;5035839;28;20174;-90
2023/12/08 06:49:54;;;;;;;3.73;3.47;;;2.10;99.90;;;;;;5018507;28;20691;-89
2023/12/08 06:52:19;;;;;;;1.13;1.13;;;2.10;99.90;;;;;;5035384;28;20213;-90
2023/12/08 06:54:51;;;;;;;2.33;1.83;;;2.20;99.90;;;;;;5034958;28;20305;-90
2023/12/08 06:57:17;;;;;;;1.23;1.23;;;2.00;99.90;;;;;;5038431;28;20228;-89
2023/12/08 06:59:45;;;;;;;1.13;1.13;;;2.10;99.90;;;;;;5057351;28;20178;-90
2023/12/08 07:02:16;;;;;;;1.13;1.13;;;2.20;99.90;;;;;;5038998;28;20530;-91
2023/12/08 07:04:42;;;;;;;2.43;2.33;;;2.10;99.90;;;;;;5014198;28;20217;-90
2023/12/08 07:07:11;;;;;;;0.63;0.63;;;2.10;99.90;;;;;;5038755;28;20244;-91
2023/12/08 07:09:37;;;;;;;3.10;2.00;;;2.10;99.90;;;;;;5039194;28;20222;-90
2023/12/08 07:12:04;;;;;;;0.40;0.40;;;2.10;99.90;;;;;;5039091;28;20190;-92
2023/12/08 07:14:32;;;;;;;3.53;3.43;;;2.30;99.90;;;;;;5039967;28;20273;-92
2023/12/08 07:16:59;;;;;;;2.10;1.43;;;2.30;99.90;;;;;;5039388;28;20221;-90
2023/12/08 07:19:24;;;;;;;0.93;0.93;;;2.20;99.90;;;;;;5038762;28;20594;-91
2023/12/08 07:21:53;;;;;;;3.43;2.63;;;2.30;99.90;;;;;;5029272;28;20213;-91
2023/12/08 07:24:19;;;;;;;1.63;1.53;;;2.10;99.90;;;;;;5038357;28;20652;-91
2023/12/08 07:26:47;;;;;;;0.43;0.43;;;2.10;99.90;;;;;;5040228;28;20670;-90
2023/12/08 07:29:13;;;;;;;2.13;1.93;;;2.20;99.90;;;;;;5038911;28;20241;-91
2023/12/08 07:31:41;;;;;;;2.00;1.90;;;2.20;99.90;;;;;;5038728;28;20214;-92
2023/12/08 07:34:07;;;;;;;0.93;0.93;;;2.10;99.90;;;;;;5038632;28;20221;-91
2023/12/08 07:36:35;;;;;;;2.10;2.00;;;2.10;99.90;;;;;;5056245;28;20715;-91
2023/12/08 07:39:07;;;;;;;1.17;1.07;;;2.10;99.90;;;;;;5038362;28;20200;-93
2023/12/08 07:41:42;;;;;;;1.77;1.73;;;2.20;99.90;;;;;;5039706;28;20249;-91
2023/12/08 07:44:10;;;;;;;0.73;0.73;;;2.10;99.90;;;;;;5039331;28;20260;-92
2023/12/08 07:46:42;;;;;;;0.47;0.47;;;2.20;99.90;;;;;;5039769;28;20216;-92
2023/12/08 07:49:20;;;;;;;;;;;;;;;;;;;;;
2023/12/08 07:51:46;;;;;;;2.37;2.17;;;2.30;99.90;;;;;;5056135;28;20276;-90
2023/12/08 07:54:12;;;;;;;2.03;1.83;;;2.30;99.90;;;;;;5054649;28;20178;-91
2023/12/08 07:56:40;;;;;;;2.50;2.40;;;2.30;99.90;;;;;;5039837;28;20190;-92
2023/12/08 07:59:17;;;;;;;2.40;1.53;;;2.10;99.90;;;;;;5045673;28;20233;-92
2023/12/08 08:01:53;;;;;;;4.07;1.93;;;2.10;99.90;;;;;;5039856;28;20314;-92
2023/12/08 08:04:18;;;;;;;1.17;1.17;;;2.30;99.90;;;;;;5038041;28;20222;-89
2023/12/08 08:06:45;;;;;;;1.13;1.13;;;2.20;99.90;;;;;;5020629;28;20607;-88
2023/12/08 08:09:13;;;;;;;1.50;0.83;;;2.30;99.90;;;;;;5043707;28;20248;-90
2023/12/08 08:11:48;;;;;;;1.67;1.60;;;2.30;99.90;;;;;;5038260;28;20170;-91
2023/12/08 08:14:14;;;;;;;2.50;2.30;;;2.30;99.90;;;;;;5037686;28;20240;-89
2023/12/08 08:16:45;;;;;;;3.93;3.73;;;2.20;99.90;;;;;;5037324;28;20275;-89
2023/12/08 08:19:11;;;;;;;1.17;1.17;;;2.20;99.90;;;;;;5037513;28;20225;-89
2023/12/08 08:21:40;;;;;;;3.43;2.20;;;2.30;99.90;;;;;;5037816;28;20221;-90
2023/12/08 08:24:11;;;;;;;2.00;1.93;;;2.30;99.90;;;;;;5026612;28;20569;-90
2023/12/08 08:26:42;;;;;;;1.20;1.20;;;2.50;99.90;;;;;;5038890;28;20170;-91
2023/12/08 08:29:09;;;;;;;2.80;2.70;;;2.30;99.90;;;;;;5037885;28;20236;-89
2023/12/08 08:31:43;;;;;;;0.87;0.80;;;2.40;99.90;;;;;;5038487;28;20218;-90
2023/12/08 08:34:16;;;;;;;2.17;1.97;;;2.50;99.90;;;;;;5021617;28;20213;-91
2023/12/08 08:36:42;;;;;;;1.20;1.20;;;2.30;99.90;;;;;;5036636;28;20222;-90
2023/12/08 08:39:08;;;;;;;3.83;1.60;;;2.30;99.90;;;;;;5037109;28;20252;-88
2023/12/08 08:41:34;;;;;;;0.87;0.87;;;2.50;99.90;;;;;;5036965;28;20181;-90
2023/12/08 08:44:00;;;;;;;4.43;1.43;;;2.40;99.90;;;;;;5036344;28;20225;-90
2023/12/08 08:46:26;;;;;;;1.93;1.83;;;2.40;99.90;;;;;;5053964;28;20209;-90
2023/12/08 08:48:54;;;;;;;1.47;1.43;;;2.30;99.90;;;;;;5036653;28;20242;-88
2023/12/08 08:51:21;;;;;;;1.30;1.27;;;2.30;99.90;;;;;;5036742;28;20263;-89
2023/12/08 08:53:49;;;;;;;1.10;1.00;;;2.40;99.90;;;;;;5021209;28;20193;-88
2023/12/08 08:56:17;;;;;;;1.43;1.43;;;2.40;99.90;;;;;;5037441;28;20241;-88
2023/12/08 08:58:43;;;;;;;1.00;0.93;;;2.40;99.90;;;;;;5036474;28;20230;-88
2023/12/08 09:01:09;;;;;;;6.47;2.10;;;2.20;99.90;;;;;;5019882;28;20244;-88
2023/12/08 09:03:35;;;;;;;3.53;2.33;;;2.30;99.90;;;;;;5019826;28;20226;-88
2023/12/08 09:06:01;;;;;;;3.00;2.80;;;2.20;99.90;;;;;;5036673;28;20597;-88
2023/12/08 09:08:27;;;;;;;0.43;0.43;;;2.40;99.90;;;;;;5036535;28;20249;-88
2023/12/08 09:10:53;;;;;;;2.10;1.10;;;2.40;99.90;;;;;;5053675;28;20232;-88
2023/12/08 09:13:20;;;;;;;2.00;1.33;;;2.30;99.90;;;;;;5016599;28;20249;-88
2023/12/08 09:15:46;;;;;;;1.43;1.43;;;2.40;99.90;;;;;;5016083;28;20281;-87
2023/12/08 09:18:12;;;;;;;1.60;1.50;;;2.30;99.90;;;;;;5015409;28;20174;-87
2023/12/08 09:20:37;;;;;;;7.77;1.80;;;2.30;99.90;;;;;;5034257;28;20202;-88
2023/12/08 09:23:03;;;;;;;2.50;2.40;;;2.40;99.90;;;;;;5016221;28;20690;-89
2023/12/08 09:25:29;;;;;;;5.90;3.33;;;2.40;99.90;;;;;;5032935;28;20249;-87
2023/12/08 09:27:58;;;;;;;3.23;3.03;;;2.40;99.90;;;;;;5017294;28;20223;-86
2023/12/08 09:30:24;;;;;;;1.93;1.80;;;2.60;99.90;;;;;;5016528;28;20649;-89
2023/12/08 09:32:50;;;;;;;2.87;2.63;;;2.50;99.90;;;;;;5000533;28;20289;-88
2023/12/08 09:35:18;;;;;;;2.37;2.27;;;2.70;99.90;;;;;;4999572;28;20215;-88
2023/12/08 09:37:43;;;;;;;3.37;3.17;;;2.50;99.90;;;;;;4999852;28;20215;-87
2023/12/08 09:40:13;;;;;;;2.63;1.73;;;2.70;99.90;;;;;;5006373;28;20345;-88
2023/12/08 09:42:47;;;;;;;2.40;2.33;;;2.70;99.90;;;;;;5015753;28;20226;-86
2023/12/08 09:45:13;;;;;;;2.13;2.07;;;2.60;99.90;;;;;;5033114;28;20175;-87
2023/12/08 09:47:45;;;;;;;4.90;1.67;;;2.70;99.90;;;;;;4999876;28;20178;-86
2023/12/08 09:50:13;;;;;;;4.67;1.67;;;2.70;99.90;;;;;;5032296;28;20273;-87
2023/12/08 09:52:40;;;;;;;4.43;3.73;;;2.70;99.90;;;;;;5010112;28;20667;-88
2023/12/08 09:55:07;;;;;;;3.20;3.10;;;2.60;99.90;;;;;;5015122;28;20230;-87
2023/12/08 09:57:37;;;;;;;2.63;2.43;;;2.80;99.90;;;;;;5032346;28;20221;-88
2023/12/08 10:00:13;;;;;;;2.57;2.47;;;2.80;99.90;;;;;;5015082;28;20205;-88
2023/12/08 10:02:40;;;;;;;2.27;0.87;;;2.80;99.90;;;;;;5016147;28;20253;-88
2023/12/08 10:05:07;;;;;;;1.50;1.47;;;2.90;99.90;;;;;;5015495;28;20241;-88
2023/12/08 10:07:35;;;;;;;3.93;1.60;;;2.70;99.90;;;;;;5015100;28;20597;-88
2023/12/08 10:10:01;;;;;;;5.13;3.40;;;2.80;99.90;;;;;;5032769;28;20218;-87
2023/12/08 10:12:30;;;;;;;0.40;0.40;;;2.70;99.90;;;;;;5015368;28;20218;-88
2023/12/08 10:14:58;;;;;;;2.93;2.83;;;2.80;99.90;;;;;;5014998;28;20189;-86
2023/12/08 10:17:24;;;;;;;3.37;1.77;;;2.70;99.90;;;;;;5033581;28;20186;-88
2023/12/08 10:19:52;;;;;;;1.33;1.33;;;2.80;99.90;;;;;;5014844;28;20314;-88
2023/12/08 10:22:18;;;;;;;2.77;2.60;;;2.90;99.90;;;;;;5031647;28;20230;-87
2023/12/08 10:24:48;;;;;;;1.10;1.10;;;2.90;99.90;;;;;;5031578;28;20211;-88
2023/12/08 10:27:14;;;;;;;2.17;1.70;;;2.90;99.90;;;;;;5014968;28;20640;-88
2023/12/08 10:29:40;;;;;;;3.10;2.60;;;2.90;99.90;;;;;;5032162;28;20178;-87
2023/12/08 10:32:06;;;;;;;1.03;1.03;;;3.00;99.90;;;;;;5015385;28;20214;-87
2023/12/08 10:34:32;;;;;;;1.93;1.33;;;2.90;99.90;;;;;;5015139;28;20244;-86
2023/12/08 10:36:58;;;;;;;7.70;1.47;;;2.90;99.90;;;;;;5032610;28;20291;-88
2023/12/08 10:39:27;;;;;;;0.97;0.97;;;2.90;99.90;;;;;;5032031;28;20677;-88
2023/12/08 10:41:53;;;;;;;2.83;1.83;;;2.90;99.90;;;;;;5015646;28;20186;-87
2023/12/08 10:44:22;;;;;;;2.13;1.60;;;2.90;99.90;;;;;;5014642;28;20230;-87
2023/12/08 10:46:48;;;;;;;3.93;3.67;;;3.10;99.90;;;;;;5019016;28;20404;-88
2023/12/08 10:49:19;;;;;;;4.07;2.03;;;3.10;99.90;;;;;;5009593;28;20217;-88
2023/12/08 10:51:47;;;;;;;1.93;1.83;;;2.90;99.90;;;;;;5018177;28;20301;-88
2023/12/08 10:54:16;;;;;;;3.33;3.10;;;2.90;99.90;;;;;;5034331;28;20177;-88
2023/12/08 10:56:45;;;;;;;1.87;1.77;;;3.00;99.90;;;;;;5035028;28;20178;-88
2023/12/08 10:59:16;;;;;;;2.80;2.70;;;3.10;99.90;;;;;;5034433;28;20248;-87
2023/12/08 11:01:43;;;;;;;5.50;2.43;;;3.10;99.90;;;;;;5052009;28;20553;-87
2023/12/08 11:04:10;;;;;;;3.23;3.03;;;3.20;99.90;;;;;;5034450;28;20229;-88
2023/12/08 11:06:46;;;;;;;1.47;1.43;;;3.20;99.90;;;;;;5018110;28;20297;-89
2023/12/08 11:09:15;;;;;;;2.17;1.97;;;3.10;99.90;;;;;;5017452;28;20376;-88
2023/12/08 11:11:51;;;;;;;1.37;1.27;;;3.20;99.90;;;;;;5015860;28;20233;-87
2023/12/08 11:14:42;;;;;;;1.13;1.13;;;3.30;99.90;;;;;;5014614;28;20214;-87
2023/12/08 11:17:37;;;;;;;3.00;2.50;;;3.20;99.90;;;;;;5015225;28;20297;-87
2023/12/08 11:20:05;;;;;;;1.63;1.37;;;3.20;99.90;;;;;;5012486;28;20271;-85
2023/12/08 11:22:33;;;;;;;2.20;2.13;;;3.40;99.90;;;;;;4998321;28;20227;-88
2023/12/08 11:25:00;;;;;;;5.87;5.23;;;3.40;99.90;;;;;;4998214;28;20245;-87
2023/12/08 11:28:21;;;;;;;1.23;1.23;;;3.20;99.90;;;;;;5014440;28;20226;-87
2023/12/08 11:31:06;;;;;;;4.17;3.77;;;3.40;99.90;;;;;;5011482;28;20230;-88
2023/12/08 11:33:53;;;;;;;1.30;0.93;;;3.40;99.90;;;;;;5014167;28;20218;-89
2023/12/08 11:36:19;;;;;;;1.93;1.83;;;3.30;99.90;;;;;;5013983;28;20294;-86
2023/12/08 11:38:45;;;;;;;4.40;3.13;;;3.30;99.90;;;;;;5014702;28;20254;-88
2023/12/08 11:41:12;;;;;;;1.77;1.60;;;3.50;99.90;;;;;;4998224;28;20215;-87
2023/12/08 11:43:43;;;;;;;1.83;1.73;;;3.50;99.90;;;;;;5017591;28;20237;-90
2023/12/08 11:46:09;;;;;;;1.70;1.57;;;3.50;99.90;;;;;;5035264;28;20697;-84
2023/12/08 11:48:36;;;;;;;1.70;1.60;;;3.40;99.90;;;;;;5017485;28;20229;-83
2023/12/08 11:51:04;;;;;;;2.53;2.43;;;3.50;99.90;;;;;;5034724;28;20218;-84
2023/12/08 11:53:46;;;;;;;1.97;1.77;;;3.40;99.90;;;;;;5017798;28;20183;-84
2023/12/08 11:56:38;;;;;;;2.30;1.30;;;3.50;99.90;;;;;;5033921;28;20313;-85
2023/12/08 11:59:04;;;;;;;1.50;1.50;;;3.50;99.90;;;;;;5017364;28;20211;-84
2023/12/08 12:01:30;;;;;;;3.93;3.17;;;3.40;99.90;;;;;;5017299;28;20226;-85
2023/12/08 12:03:56;;;;;;;3.53;2.93;;;3.50;99.90;;;;;;5000816;28;20713;-83
2023/12/08 12:06:23;;;;;;;4.80;4.33;;;3.50;99.90;;;;;;5000529;28;20250;-84
2023/12/08 12:08:50;;;;;;;1.37;1.30;;;3.50;99.90;;;;;;5034753;28;20249;-84
2023/12/08 12:11:21;;;;;;;3.53;3.30;;;3.60;99.90;;;;;;5017031;28;20238;-83
2023/12/08 12:13:47;;;;;;;3.20;2.90;;;3.60;99.90;;;;;;5001115;28;20213;-83
2023/12/08 12:16:13;;;;;;;5.57;3.37;;;3.50;99.90;;;;;;5017257;28;20215;-84
2023/12/08 12:18:39;;;;;;;3.47;2.87;;;3.40;99.90;;;;;;5016704;28;20218;-84
2023/12/08 12:21:08;;;;;;;2.60;2.40;;;3.40;99.90;;;;;;5000462;28;20175;-83
2023/12/08 12:23:34;;;;;;;2.70;2.50;;;3.50;99.90;;;;;;5017334;28;20289;-84
2023/12/08 12:25:59;;;;;;;8.03;3.63;;;3.50;99.90;;;;;;5016861;28;20577;-83
2023/12/08 12:28:25;;;;;;;2.83;2.60;;;3.60;99.90;;;;;;5016616;28;20210;-84
2023/12/08 12:30:51;;;;;;;2.90;2.23;;;3.70;99.90;;;;;;5016581;28;20218;-84
2023/12/08 12:33:17;;;;;;;2.00;1.87;;;3.80;99.90;;;;;;5000578;28;20214;-85
2023/12/08 12:35:43;;;;;;;7.33;2.80;;;3.80;99.90;;;;;;5016838;28;20627;-85
2023/12/08 12:38:13;;;;;;;3.20;3.00;;;3.80;99.90;;;;;;5000235;28;20298;-84
2023/12/08 12:40:38;;;;;;;1.20;1.20;;;3.80;99.90;;;;;;5001131;28;20293;-84
2023/12/08 12:43:04;;;;;;;6.63;4.00;;;3.80;99.90;;;;;;4999857;28;20446;-83
2023/12/08 12:45:31;;;;;;;1.70;1.40;;;3.80;99.90;;;;;;5016385;28;20214;-85
2023/12/08 12:48:04;;;;;;;9.27;5.50;;;3.90;99.90;;;;;;4999632;28;20193;-85
2023/12/08 12:50:30;;;;;;;4.23;3.33;;;3.90;99.90;;;;;;5034483;28;20644;-84
2023/12/08 12:53:05;;;;;;;2.23;1.53;;;3.70;99.90;;;;;;5032533;28;20309;-84
2023/12/08 12:55:31;;;;;;;1.23;1.23;;;3.80;99.90;;;;;;5016147;28;20218;-84
2023/12/08 12:57:57;;;;;;;4.43;2.70;;;4.00;99.90;;;;;;4999393;28;20647;-84
2023/12/08 13:00:34;;;;;;;5.87;2.90;;;4.00;99.90;;;;;;4999722;28;20212;-83
2023/12/08 13:03:11;;;;;;;4.77;4.37;;;4.00;99.90;;;;;;4999283;28;20642;-83
2023/12/08 13:06:06;;;;;;;1.67;1.63;;;4.00;99.90;;;;;;5016553;28;20266;-84
2023/12/08 13:08:43;;;;;;;5.43;3.63;;;3.90;99.90;;;;;;5029221;28;20308;-83
2023/12/08 13:11:09;;;;;;;8.57;2.33;;;3.90;99.90;;;;;;4999225;28;20241;-83